createdAt,value
2022-09-07T00:00:52.924Z,6.22
2022-09-07T00:03:20.970Z,6.13
2022-09-07T00:05:51.520Z,6.13
2022-09-07T00:08:22.708Z,6.75
2022-09-07T00:11:02.972Z,6.32
2022-09-07T00:13:34.928Z,5.80
2022-09-07T00:16:16.314Z,6.57
2022-09-07T00:18:46.319Z,6.18
2022-09-07T00:21:16.052Z,6.15
2022-09-07T00:23:44.150Z,5.80
2022-09-07T00:26:15.403Z,5.65
2022-09-07T00:28:43.540Z,6.18
2022-09-07T00:31:24.284Z,6.15
2022-09-07T00:33:53.706Z,6.72
2022-09-07T00:36:22.567Z,6.20
2022-09-07T00:38:50.442Z,6.93
2022-09-07T00:41:19.079Z,6.85
2022-09-07T00:43:57.708Z,6.13
2022-09-07T00:46:34.434Z,6.63
2022-09-07T00:49:14.040Z,5.65
2022-09-07T00:51:52.487Z,5.10
2022-09-07T00:54:29.095Z,5.43
2022-09-07T00:56:56.391Z,5.35
2022-09-07T00:59:30.500Z,5.30
2022-09-07T01:01:57.780Z,5.13
2022-09-07T01:04:25.984Z,5.40
2022-09-07T01:11:01.102Z,5.57
2022-09-07T01:13:28.215Z,5.45
2022-09-07T01:16:44.310Z,5.68
2022-09-07T01:19:19.775Z,5.82
2022-09-07T01:22:32.354Z,6.43
2022-09-07T01:25:26.810Z,5.50
2022-09-07T01:28:16.104Z,6.20
2022-09-07T01:31:18.229Z,5.72
2022-09-07T01:34:01.445Z,6.28
2022-09-07T01:36:36.466Z,6.28
2022-09-07T01:39:05.851Z,6.80
2022-09-07T01:41:57.013Z,6.05
2022-09-07T01:44:56.086Z,6.50
2022-09-07T01:47:45.555Z,6.72
2022-09-07T01:50:21.205Z,6.57
2022-09-07T01:52:56.588Z,6.50
2022-09-07T01:55:36.774Z,6.57
2022-09-07T01:58:20.876Z,7.10
2022-09-07T02:01:00.862Z,6.85
2022-09-07T02:03:38.172Z,6.82
2022-09-07T02:06:33.384Z,6.63
2022-09-07T02:09:08.146Z,7.32
2022-09-07T02:11:43.524Z,7.53
2022-09-07T02:14:36.344Z,6.82
2022-09-07T02:17:15.157Z,7.50
2022-09-07T02:19:54.739Z,7.32
2022-09-07T02:22:27.320Z,7.45
2022-09-07T02:24:58.620Z,7.47
2022-09-07T02:27:35.517Z,7.30
2022-09-07T02:30:02.406Z,7.57
2022-09-07T02:32:29.316Z,8.27
2022-09-07T02:34:56.165Z,8.27
2022-09-07T02:37:23.760Z,7.68
2022-09-07T02:39:50.679Z,7.80
2022-09-07T02:42:17.561Z,8.90
2022-09-07T02:44:46.519Z,9.60
2022-09-07T02:47:36.831Z,9.48
2022-09-07T02:50:39.699Z,9.88
2022-09-07T02:53:32.518Z,9.27
2022-09-07T02:56:25.909Z,10.15
2022-09-07T02:59:00.306Z,9.02
2022-09-07T03:02:10.414Z,9.80
2022-09-07T03:04:55.811Z,10.25
2022-09-07T03:07:44.011Z,10.18
2022-09-07T03:10:13.974Z,9.48
2022-09-07T03:12:47.981Z,8.82
2022-09-07T03:15:21.887Z,7.55
2022-09-07T03:17:49.051Z,8.48
2022-09-07T03:20:17.147Z,9.05
2022-09-07T03:22:48.578Z,9.63
2022-09-07T03:25:16.484Z,9.05
2022-09-07T03:27:43.460Z,10.07
2022-09-07T03:30:12.087Z,9.48
2022-09-07T03:32:39.538Z,10.73
2022-09-07T03:35:08.319Z,9.05
2022-09-07T03:37:38.949Z,8.68
2022-09-07T03:40:09.918Z,9.40
2022-09-07T03:42:37.823Z,9.18
2022-09-07T03:45:06.561Z,9.25
2022-09-07T03:47:38.054Z,9.75
2022-09-07T03:50:06.364Z,8.95
2022-09-07T03:52:34.814Z,8.95
2022-09-07T03:55:01.851Z,8.85
2022-09-07T03:57:28.724Z,9.25
2022-09-07T03:59:55.597Z,8.43
2022-09-07T04:02:22.485Z,9.93
2022-09-07T04:04:49.404Z,8.60
2022-09-07T04:07:16.597Z,9.02
2022-09-07T04:09:43.499Z,8.90
2022-09-07T04:12:10.557Z,8.82
2022-09-07T04:14:37.498Z,8.68
2022-09-07T04:17:04.429Z,8.45
2022-09-07T04:19:31.371Z,8.77
2022-09-07T04:21:58.316Z,8.85
2022-09-07T04:24:25.500Z,8.57
2022-09-07T04:26:52.388Z,9.88
2022-09-07T04:29:19.375Z,9.30
2022-09-07T04:31:46.215Z,8.85
2022-09-07T04:34:15.599Z,8.95
2022-09-07T04:36:42.494Z,8.80
2022-09-07T04:39:11.301Z,8.50
2022-09-07T04:41:38.202Z,9.93
2022-09-07T04:44:05.457Z,8.80
2022-09-07T04:46:36.901Z,9.88
2022-09-07T04:49:10.622Z,9.43
2022-09-07T04:51:40.250Z,9.25
2022-09-07T04:54:07.286Z,10.20
2022-09-07T04:56:34.279Z,10.55
2022-09-07T04:59:02.423Z,9.20
2022-09-07T05:01:30.020Z,8.93
2022-09-07T05:04:00.108Z,9.10
2022-09-07T05:06:27.244Z,9.77
2022-09-07T05:08:54.901Z,9.50
2022-09-07T05:11:28.671Z,10.15
2022-09-07T05:14:00.480Z,10.00
2022-09-07T05:16:28.463Z,9.80
2022-09-07T05:18:59.204Z,9.30
2022-09-07T05:21:30.456Z,10.30
2022-09-07T05:23:59.633Z,8.98
2022-09-07T05:26:30.491Z,10.48
2022-09-07T05:31:50.039Z,9.25
2022-09-07T05:34:32.852Z,9.18
2022-09-07T05:37:01.217Z,8.82
2022-09-07T05:39:28.542Z,8.98
2022-09-07T05:41:55.741Z,8.25
2022-09-07T05:47:09.990Z,9.00
2022-09-07T05:49:37.459Z,9.15
2022-09-07T05:52:04.531Z,9.52
2022-09-07T05:54:31.488Z,9.20
2022-09-07T05:56:58.346Z,9.75
2022-09-07T05:59:25.256Z,8.80
2022-09-07T06:01:52.168Z,8.80
2022-09-07T06:04:19.535Z,7.95
2022-09-07T06:06:59.370Z,8.20
2022-09-07T06:09:33.648Z,7.95
2022-09-07T06:12:00.545Z,8.05
2022-09-07T06:14:27.382Z,8.38
2022-09-07T06:16:54.284Z,7.43
2022-09-07T06:19:21.151Z,8.40
2022-09-07T06:21:48.149Z,8.13
2022-09-07T06:24:15.184Z,8.50
2022-09-07T06:26:42.363Z,7.45
2022-09-07T06:29:12.223Z,7.40
2022-09-07T06:34:26.365Z,7.90
2022-09-07T06:36:53.241Z,7.70
2022-09-07T06:39:20.106Z,8.25
2022-09-07T06:42:02.344Z,7.95
2022-09-07T06:44:30.228Z,6.93
2022-09-07T06:47:04.890Z,7.32
2022-09-07T06:49:32.072Z,8.23
2022-09-07T06:51:59.240Z,8.05
2022-09-07T06:57:13.028Z,8.30
2022-09-07T06:59:39.996Z,8.00
2022-09-07T07:02:07.873Z,7.90
2022-09-07T07:04:40.192Z,7.18
2022-09-07T07:09:39.772Z,8.70
2022-09-07T07:12:06.777Z,8.30
2022-09-07T07:14:35.043Z,8.70
2022-09-07T07:17:03.130Z,7.65
2022-09-07T07:19:30.168Z,9.63
2022-09-07T07:24:43.952Z,9.50
2022-09-07T07:27:10.835Z,9.10
2022-09-07T07:29:37.659Z,8.02
2022-09-07T07:32:04.616Z,9.00
2022-09-07T07:34:31.578Z,9.80
2022-09-07T07:36:58.417Z,9.43
2022-09-07T07:42:12.421Z,9.32
2022-09-07T07:44:39.321Z,8.68
2022-09-07T07:47:06.304Z,8.30
2022-09-07T07:49:33.179Z,8.43
2022-09-07T07:54:47.520Z,7.93
2022-09-07T07:57:16.726Z,7.68
2022-09-07T07:59:43.628Z,8.13
2022-09-07T08:02:16.110Z,7.95
2022-09-07T08:04:43.061Z,6.60
2022-09-07T08:07:11.938Z,7.13
2022-09-07T08:09:41.451Z,7.10
2022-09-07T08:12:11.159Z,7.65
2022-09-07T08:14:41.822Z,7.43
2022-09-07T08:17:11.499Z,7.53
2022-09-07T08:19:38.814Z,6.45
2022-09-07T08:22:06.208Z,6.80
2022-09-07T08:24:33.563Z,6.88
2022-09-07T08:27:00.894Z,7.18
2022-09-07T08:29:31.270Z,7.35
2022-09-07T08:32:00.581Z,7.43
2022-09-07T08:34:27.360Z,7.82
2022-09-07T08:36:54.879Z,6.85
2022-09-07T08:39:21.758Z,7.50
2022-09-07T08:42:08.171Z,7.10
2022-09-07T08:44:55.592Z,8.07
2022-09-07T08:47:37.486Z,7.43
2022-09-07T08:50:12.337Z,7.38
2022-09-07T08:52:46.752Z,7.22
2022-09-07T08:55:26.756Z,6.70
2022-09-07T08:58:02.843Z,6.72
2022-09-07T09:00:32.209Z,7.15
2022-09-07T09:05:58.455Z,6.97
2022-09-07T09:09:11.003Z,6.60
2022-09-07T09:11:49.291Z,7.05
2022-09-07T09:14:59.128Z,7.88
2022-09-07T09:17:53.177Z,6.80
2022-09-07T09:20:46.508Z,7.20
2022-09-07T09:23:16.984Z,6.07
2022-09-07T09:26:27.511Z,6.35
2022-09-07T09:28:57.695Z,6.95
2022-09-07T09:31:36.134Z,7.50
2022-09-07T09:34:07.142Z,6.50
2022-09-07T09:36:53.033Z,6.65
2022-09-07T09:39:40.038Z,6.97
2022-09-07T09:42:24.433Z,6.93
2022-09-07T09:44:51.747Z,6.25
2022-09-07T09:47:32.408Z,6.32
2022-09-07T09:53:30.243Z,6.70
2022-09-07T09:55:57.642Z,6.32
2022-09-07T10:03:07.645Z,6.13
2022-09-07T10:04:34.702Z,5.53
2022-09-07T10:07:23.144Z,5.72
2022-09-07T10:09:53.170Z,5.38
2022-09-07T10:12:40.727Z,5.25
2022-09-07T10:15:26.850Z,5.95
2022-09-07T10:18:02.747Z,5.40
2022-09-07T10:20:37.216Z,4.97
2022-09-07T10:23:19.978Z,3.67
2022-09-07T10:25:48.748Z,3.55
2022-09-07T10:31:25.913Z,3.60
2022-09-07T10:34:27.880Z,3.33
2022-09-07T10:37:05.686Z,3.40
2022-09-07T10:40:00.138Z,3.78
2022-09-07T10:49:29.744Z,3.67
2022-09-07T10:52:37.736Z,4.13
2022-09-07T10:55:26.125Z,3.65
2022-09-07T10:58:16.573Z,3.45
2022-09-07T11:01:15.898Z,3.15
2022-09-07T11:03:52.174Z,3.60
2022-09-07T11:06:27.134Z,3.42
2022-09-07T11:09:16.257Z,3.47
2022-09-07T11:12:07.694Z,4.13
2022-09-07T11:15:08.183Z,3.95
2022-09-07T11:17:57.750Z,3.90
2022-09-07T11:20:41.688Z,3.85
2022-09-07T11:23:33.078Z,3.88
2022-09-07T11:26:39.243Z,4.13
2022-09-07T11:29:30.439Z,3.70
2022-09-07T11:32:19.057Z,3.80
2022-09-07T11:34:55.751Z,3.50
2022-09-07T11:37:31.234Z,3.63
2022-09-07T11:40:55.759Z,4.30
2022-09-07T11:43:46.692Z,4.35
2022-09-07T11:46:49.598Z,4.28
2022-09-07T11:49:22.710Z,3.58
2022-09-07T11:52:05.825Z,3.78
2022-09-07T11:54:57.840Z,3.58
2022-09-07T11:58:13.692Z,3.50
2022-09-07T12:01:07.407Z,3.88
2022-09-07T12:03:48.885Z,3.78
2022-09-07T12:06:53.253Z,4.72
2022-09-07T12:09:48.289Z,4.10
2022-09-07T12:12:48.642Z,4.10
2022-09-07T12:15:49.668Z,4.10
2022-09-07T12:19:01.479Z,3.80
2022-09-07T12:21:54.797Z,4.80
2022-09-07T12:24:45.077Z,4.65
2022-09-07T12:27:34.676Z,3.97
2022-09-07T12:30:22.591Z,3.63
2022-09-07T12:32:56.552Z,4.53
2022-09-07T12:35:39.916Z,4.95
2022-09-07T12:38:18.872Z,4.80
2022-09-07T12:40:58.109Z,4.15
2022-09-07T12:43:27.811Z,4.38
2022-09-07T12:45:56.603Z,3.72
2022-09-07T12:48:54.463Z,4.45
2022-09-07T12:54:52.766Z,4.65
2022-09-07T12:58:14.162Z,4.43
2022-09-07T13:01:23.932Z,4.60
2022-09-07T13:04:23.393Z,4.00
2022-09-07T13:07:24.693Z,3.45
2022-09-07T13:10:00.269Z,4.07
2022-09-07T13:12:54.240Z,3.55
2022-09-07T13:15:52.171Z,3.40
2022-09-07T13:18:28.426Z,4.07
2022-09-07T13:21:07.218Z,3.30
2022-09-07T13:23:42.989Z,3.60
2022-09-07T13:26:12.893Z,3.40
2022-09-07T13:28:51.568Z,3.45
2022-09-07T13:32:11.729Z,3.80
2022-09-07T13:35:12.418Z,2.88
2022-09-07T13:38:01.799Z,3.03
2022-09-07T13:40:33.977Z,2.97
2022-09-07T13:43:03.800Z,2.95
2022-09-07T13:45:54.177Z,3.00
2022-09-07T13:48:52.528Z,2.83
2022-09-07T13:51:40.069Z,3.15
2022-09-07T13:54:26.803Z,3.60
2022-09-07T13:57:32.877Z,2.65
2022-09-07T13:59:59.800Z,2.53
2022-09-07T14:02:32.530Z,2.55
2022-09-07T14:05:01.272Z,3.17
2022-09-07T14:07:31.000Z,2.83
2022-09-07T14:10:19.698Z,3.42
2022-09-07T14:13:10.634Z,2.60
2022-09-07T14:15:49.048Z,3.20
2022-09-07T14:18:25.535Z,2.85
2022-09-07T14:20:53.630Z,3.00
2022-09-07T14:23:31.556Z,2.47
2022-09-07T14:26:20.666Z,2.60
2022-09-07T14:28:54.366Z,2.40
2022-09-07T14:31:24.644Z,2.60
2022-09-07T14:33:56.768Z,2.95
2022-09-07T14:36:44.703Z,2.88
2022-09-07T14:39:15.727Z,2.47
2022-09-07T14:41:43.458Z,2.50
2022-09-07T14:44:31.375Z,2.33
2022-09-07T14:47:01.965Z,2.83
2022-09-07T14:49:28.964Z,3.33
2022-09-07T14:51:56.177Z,2.35
2022-09-07T14:54:35.329Z,2.90
2022-09-07T14:57:28.238Z,2.75
2022-09-07T15:02:33.249Z,2.50
2022-09-07T15:05:18.911Z,3.20
2022-09-07T15:07:48.345Z,2.47
2022-09-07T15:10:20.864Z,2.72
2022-09-07T15:12:57.452Z,2.65
2022-09-07T15:15:27.410Z,3.03
2022-09-07T15:18:01.874Z,2.40
2022-09-07T15:20:45.074Z,2.65
2022-09-07T15:23:17.972Z,2.67
2022-09-07T15:25:51.123Z,2.70
2022-09-07T15:34:16.035Z,2.45
2022-09-07T15:36:49.586Z,2.78
2022-09-07T15:39:21.056Z,2.38
2022-09-07T15:41:48.244Z,2.65
2022-09-07T15:44:16.212Z,2.92
2022-09-07T15:47:42.467Z,2.60
2022-09-07T15:49:31.192Z,2.78
2022-09-07T15:52:05.739Z,2.80
2022-09-07T15:54:35.329Z,2.70
2022-09-07T15:59:50.914Z,3.50
2022-09-07T16:05:06.158Z,2.47
2022-09-07T16:10:20.963Z,2.63
2022-09-07T16:13:10.463Z,2.42
2022-09-07T16:15:35.274Z,2.72
2022-09-07T16:18:02.666Z,2.70
2022-09-07T16:20:32.752Z,3.08
2022-09-07T16:23:16.258Z,2.92
2022-09-07T16:25:59.613Z,3.00
2022-09-07T16:28:27.641Z,3.05
2022-09-07T16:30:56.164Z,2.65
2022-09-07T16:33:31.257Z,2.80
2022-09-07T16:36:07.512Z,2.90
2022-09-07T16:38:50.362Z,3.23
2022-09-07T16:41:26.609Z,2.85
2022-09-07T16:43:54.761Z,2.90
2022-09-07T16:46:30.183Z,3.05
2022-09-07T16:48:57.236Z,3.05
2022-09-07T16:51:24.958Z,3.53
2022-09-07T16:53:55.043Z,3.00
2022-09-07T16:56:28.506Z,3.05
2022-09-07T16:58:59.478Z,3.05
2022-09-07T17:01:33.521Z,3.00
2022-09-07T17:04:06.691Z,2.97
2022-09-07T17:06:36.620Z,3.17
2022-09-07T17:09:03.678Z,3.00
2022-09-07T17:11:34.666Z,3.42
2022-09-07T17:14:01.868Z,3.35
2022-09-07T17:16:32.802Z,3.40
2022-09-07T17:21:53.010Z,3.50
2022-09-07T17:24:20.057Z,3.20
2022-09-07T17:26:47.473Z,2.90
2022-09-07T17:29:14.805Z,4.00
2022-09-07T17:34:30.607Z,3.50
2022-09-07T17:36:57.795Z,3.55
2022-09-07T17:39:25.070Z,3.58
2022-09-07T17:41:52.633Z,4.07
2022-09-07T17:44:20.471Z,4.13
2022-09-07T17:46:49.658Z,3.40
2022-09-07T17:49:16.909Z,3.50
2022-09-07T17:51:44.696Z,3.85
2022-09-07T17:54:15.555Z,3.42
2022-09-07T17:56:44.845Z,3.60
2022-09-07T18:01:59.119Z,4.30
2022-09-07T18:04:26.285Z,4.47
2022-09-07T18:06:54.134Z,4.15
2022-09-07T18:09:21.885Z,4.03
2022-09-07T18:11:49.783Z,3.83
2022-09-07T18:14:18.330Z,3.92
2022-09-07T18:16:47.898Z,3.92
2022-09-07T18:19:17.856Z,3.58
2022-09-07T18:21:44.976Z,3.65
2022-09-07T18:24:16.623Z,3.90
2022-09-07T18:26:49.590Z,3.85
2022-09-07T18:29:28.074Z,3.83
2022-09-07T18:31:56.693Z,3.83
2022-09-07T18:34:23.642Z,2.70
2022-09-07T18:36:50.629Z,2.90
2022-09-07T18:39:17.494Z,3.30
2022-09-07T18:41:44.268Z,3.10
2022-09-07T18:46:57.826Z,3.33
2022-09-07T18:49:25.001Z,3.47
2022-09-07T18:54:41.304Z,3.75
2022-09-07T18:57:08.644Z,3.28
2022-09-07T18:59:35.726Z,3.78
2022-09-07T19:02:04.718Z,3.72
2022-09-07T19:07:27.322Z,4.00
2022-09-07T19:09:55.916Z,3.92
2022-09-07T19:12:24.062Z,3.47
2022-09-07T19:14:50.957Z,3.42
2022-09-07T19:17:17.858Z,3.67
2022-09-07T19:19:44.673Z,3.35
2022-09-07T19:22:11.511Z,3.78
2022-09-07T19:24:38.322Z,3.83
2022-09-07T19:27:07.079Z,3.53
2022-09-07T19:29:33.849Z,3.30
2022-09-07T19:32:07.508Z,3.65
2022-09-07T19:34:42.643Z,4.03
2022-09-07T19:37:12.055Z,4.03
2022-09-07T19:39:39.314Z,3.72
2022-09-07T19:42:07.120Z,3.65
2022-09-07T19:44:34.083Z,4.05
2022-09-07T19:47:01.914Z,3.80
2022-09-07T19:49:29.011Z,3.60
2022-09-07T19:51:56.200Z,3.78
2022-09-07T19:54:23.001Z,4.05
2022-09-07T19:56:49.829Z,4.03
2022-09-07T19:59:19.512Z,4.50
2022-09-07T20:01:48.233Z,3.78
2022-09-07T20:04:20.681Z,3.70
2022-09-07T20:06:50.092Z,4.13
2022-09-07T20:09:18.985Z,3.83
2022-09-07T20:11:47.453Z,4.10
2022-09-07T20:14:16.261Z,3.83
2022-09-07T20:16:43.548Z,4.10
2022-09-07T20:19:14.611Z,4.10
2022-09-07T20:21:42.419Z,4.13
2022-09-07T20:24:12.124Z,3.63
2022-09-07T20:26:39.009Z,3.90
2022-09-07T20:29:26.306Z,4.22
2022-09-07T20:31:53.603Z,4.00
2022-09-07T20:34:20.505Z,4.18
2022-09-07T20:36:50.226Z,4.40
2022-09-07T20:39:17.540Z,4.13
2022-09-07T20:41:44.429Z,4.00
2022-09-07T20:44:11.548Z,4.22
2022-09-07T20:46:38.831Z,4.18
2022-09-07T20:49:06.121Z,3.80
2022-09-07T20:51:33.112Z,3.80
2022-09-07T20:53:59.898Z,4.38
2022-09-07T20:56:30.202Z,5.07
2022-09-07T20:59:01.333Z,4.50
2022-09-07T21:01:30.702Z,3.58
2022-09-07T21:03:59.195Z,4.40
2022-09-07T21:06:27.439Z,4.25
2022-09-07T21:08:56.770Z,4.32
2022-09-07T21:11:31.777Z,4.43
2022-09-07T21:14:08.185Z,4.07
2022-09-07T21:16:36.080Z,4.63
2022-09-07T21:19:10.908Z,5.55
2022-09-07T21:21:40.814Z,3.72
2022-09-07T21:24:18.026Z,4.50
2022-09-07T21:26:45.707Z,4.00
2022-09-07T21:29:20.201Z,4.65
2022-09-07T21:31:47.647Z,4.10
2022-09-07T21:34:16.409Z,3.70
2022-09-07T21:36:43.609Z,3.60
2022-09-07T21:39:13.828Z,4.15
2022-09-07T21:41:42.245Z,4.40
2022-09-07T21:44:13.781Z,4.45
2022-09-07T21:46:42.068Z,4.18
2022-09-07T21:49:09.022Z,4.60
2022-09-07T21:51:35.810Z,5.00
2022-09-07T21:54:02.580Z,4.50
2022-09-07T21:56:31.289Z,4.90
2022-09-07T21:59:01.348Z,4.78
2022-09-07T22:01:30.160Z,4.93
2022-09-07T22:04:00.976Z,4.15
2022-09-07T22:06:29.139Z,4.97
2022-09-07T22:08:56.186Z,4.30
2022-09-07T22:11:25.831Z,4.40
2022-09-07T22:13:59.082Z,4.53
2022-09-07T22:16:25.998Z,4.28
2022-09-07T22:18:53.544Z,4.40
2022-09-07T22:21:24.615Z,3.80
2022-09-07T22:23:55.505Z,3.90
2022-09-07T22:26:25.784Z,4.72
2022-09-07T22:28:52.976Z,4.22
2022-09-07T22:31:34.670Z,3.85
2022-09-07T22:34:04.963Z,4.13
2022-09-07T22:36:39.201Z,4.65
2022-09-07T22:39:18.853Z,3.90
2022-09-07T22:41:47.233Z,4.22
2022-09-07T22:44:18.495Z,4.38
2022-09-07T22:46:46.932Z,4.03
2022-09-07T22:49:16.798Z,4.03
2022-09-07T22:51:44.150Z,4.53
2022-09-07T22:54:11.314Z,4.10
2022-09-07T22:56:39.221Z,4.10
2022-09-07T22:59:07.726Z,4.32
2022-09-07T23:01:35.228Z,4.30
2022-09-07T23:04:02.605Z,4.30
2022-09-07T23:06:37.703Z,4.60
2022-09-07T23:09:11.526Z,4.85
2022-09-07T23:11:39.267Z,5.05
2022-09-07T23:14:11.780Z,4.85
2022-09-07T23:16:38.805Z,4.28
2022-09-07T23:19:05.636Z,4.40
2022-09-07T23:21:32.814Z,4.85
2022-09-07T23:24:01.002Z,4.90
2022-09-07T23:26:30.940Z,4.05
2022-09-07T23:29:01.065Z,4.40
2022-09-07T23:31:30.578Z,4.35
2022-09-07T23:33:57.707Z,4.68
2022-09-07T23:36:24.757Z,4.65
2022-09-07T23:38:58.202Z,4.18
2022-09-07T23:41:26.550Z,4.80
2022-09-07T23:43:54.716Z,3.95
2022-09-07T23:46:22.415Z,4.72
2022-09-07T23:48:49.657Z,4.63
2022-09-07T23:51:22.733Z,4.05
2022-09-07T23:53:51.227Z,4.90
2022-09-07T23:56:17.999Z,4.18
2022-09-07T23:58:45.014Z,4.90
